sensor_id;sensor_type;location;lat;lon;timestamp;P1;durP1;ratioP1;P2;durP2;ratioP2
7919;SDS011;18778;47.610;9.776;2023-08-24T00:01:18;11.83;;;10.57;;
7919;SDS011;18778;47.610;9.776;2023-08-24T00:03:44;13.33;;;11.13;;
7919;SDS011;18778;47.610;9.776;2023-08-24T00:06:14;12.23;;;10.50;;
7919;SDS011;18778;47.610;9.776;2023-08-24T00:08:40;14.27;;;10.93;;
7919;SDS011;18778;47.610;9.776;2023-08-24T00:11:05;12.57;;;11.03;;
7919;SDS011;18778;47.610;9.776;2023-08-24T00:13:32;15.67;;;11.47;;
7919;SDS011;18778;47.610;9.776;2023-08-24T00:15:58;15.10;;;10.90;;
7919;SDS011;18778;47.610;9.776;2023-08-24T00:18:24;13.73;;;11.13;;
7919;SDS011;18778;47.610;9.776;2023-08-24T00:20:51;12.50;;;11.17;;
7919;SDS011;18778;47.610;9.776;2023-08-24T00:23:16;14.47;;;11.67;;
7919;SDS011;18778;47.610;9.776;2023-08-24T00:25:43;13.30;;;11.70;;
7919;SDS011;18778;47.610;9.776;2023-08-24T00:28:09;14.37;;;12.73;;
7919;SDS011;18778;47.610;9.776;2023-08-24T00:30:36;12.80;;;11.60;;
7919;SDS011;18778;47.610;9.776;2023-08-24T00:33:01;13.00;;;11.60;;
7919;SDS011;18778;47.610;9.776;2023-08-24T00:35:27;13.33;;;12.00;;
7919;SDS011;18778;47.610;9.776;2023-08-24T00:37:53;14.73;;;12.37;;
7919;SDS011;18778;47.610;9.776;2023-08-24T00:40:19;12.87;;;11.67;;
7919;SDS011;18778;47.610;9.776;2023-08-24T00:42:45;13.47;;;12.17;;
7919;SDS011;18778;47.610;9.776;2023-08-24T00:45:11;13.30;;;12.10;;
7919;SDS011;18778;47.610;9.776;2023-08-24T00:47:41;13.07;;;11.87;;
7919;SDS011;18778;47.610;9.776;2023-08-24T00:50:09;15.63;;;12.00;;
7919;SDS011;18778;47.610;9.776;2023-08-24T00:52:39;13.57;;;12.17;;
7919;SDS011;18778;47.610;9.776;2023-08-24T00:55:06;14.20;;;12.70;;
7919;SDS011;18778;47.610;9.776;2023-08-24T00:57:32;13.80;;;12.40;;
7919;SDS011;18778;47.610;9.776;2023-08-24T01:00:02;15.50;;;12.67;;
7919;SDS011;18778;47.610;9.776;2023-08-24T01:02:36;15.93;;;12.27;;
7919;SDS011;18778;47.610;9.776;2023-08-24T01:05:03;13.63;;;12.33;;
7919;SDS011;18778;47.610;9.776;2023-08-24T01:07:36;19.23;;;12.07;;
7919;SDS011;18778;47.610;9.776;2023-08-24T01:10:03;13.80;;;12.27;;
7919;SDS011;18778;47.610;9.776;2023-08-24T01:15:17;12.90;;;11.70;;
7919;SDS011;18778;47.610;9.776;2023-08-24T01:17:44;13.70;;;12.30;;
7919;SDS011;18778;47.610;9.776;2023-08-24T01:20:12;13.77;;;12.33;;
7919;SDS011;18778;47.610;9.776;2023-08-24T01:22:45;13.50;;;12.13;;
7919;SDS011;18778;47.610;9.776;2023-08-24T01:27:38;13.20;;;11.97;;
7919;SDS011;18778;47.610;9.776;2023-08-24T01:30:05;13.90;;;11.77;;
7919;SDS011;18778;47.610;9.776;2023-08-24T01:32:32;14.37;;;12.37;;
7919;SDS011;18778;47.610;9.776;2023-08-24T01:35:03;13.87;;;12.60;;
7919;SDS011;18778;47.610;9.776;2023-08-24T01:37:34;14.33;;;12.83;;
7919;SDS011;18778;47.610;9.776;2023-08-24T01:40:12;13.67;;;12.17;;
7919;SDS011;18778;47.610;9.776;2023-08-24T01:42:47;13.90;;;12.50;;
7919;SDS011;18778;47.610;9.776;2023-08-24T01:45:17;14.60;;;12.87;;
7919;SDS011;18778;47.610;9.776;2023-08-24T01:47:43;14.17;;;12.23;;
7919;SDS011;18778;47.610;9.776;2023-08-24T01:50:12;13.43;;;12.03;;
7919;SDS011;18778;47.610;9.776;2023-08-24T01:52:38;14.37;;;12.87;;
7919;SDS011;18778;47.610;9.776;2023-08-24T01:55:04;14.10;;;12.67;;
7919;SDS011;18778;47.610;9.776;2023-08-24T01:57:31;14.60;;;12.67;;
7919;SDS011;18778;47.610;9.776;2023-08-24T01:59:57;14.23;;;12.73;;
7919;SDS011;18778;47.610;9.776;2023-08-24T02:02:23;14.00;;;12.50;;
7919;SDS011;18778;47.610;9.776;2023-08-24T02:04:50;13.00;;;11.70;;
7919;SDS011;18778;47.610;9.776;2023-08-24T02:07:16;14.27;;;12.17;;
7919;SDS011;18778;47.610;9.776;2023-08-24T02:09:42;14.13;;;12.47;;
7919;SDS011;18778;47.610;9.776;2023-08-24T02:12:07;14.33;;;12.50;;
7919;SDS011;18778;47.610;9.776;2023-08-24T02:14:33;14.03;;;12.53;;
7919;SDS011;18778;47.610;9.776;2023-08-24T02:16:59;13.97;;;12.57;;
7919;SDS011;18778;47.610;9.776;2023-08-24T02:19:25;14.10;;;12.60;;
7919;SDS011;18778;47.610;9.776;2023-08-24T02:21:51;13.57;;;12.17;;
7919;SDS011;18778;47.610;9.776;2023-08-24T02:24:16;15.27;;;12.60;;
7919;SDS011;18778;47.610;9.776;2023-08-24T02:26:42;13.17;;;11.97;;
7919;SDS011;18778;47.610;9.776;2023-08-24T02:29:08;16.03;;;12.97;;
7919;SDS011;18778;47.610;9.776;2023-08-24T02:31:34;14.63;;;12.43;;
7919;SDS011;18778;47.610;9.776;2023-08-24T02:34:00;15.30;;;12.60;;
7919;SDS011;18778;47.610;9.776;2023-08-24T02:36:26;13.63;;;12.03;;
7919;SDS011;18778;47.610;9.776;2023-08-24T02:38:52;17.30;;;13.27;;
7919;SDS011;18778;47.610;9.776;2023-08-24T02:41:18;14.67;;;12.03;;
7919;SDS011;18778;47.610;9.776;2023-08-24T02:43:44;14.27;;;11.47;;
7919;SDS011;18778;47.610;9.776;2023-08-24T02:46:10;15.40;;;12.73;;
7919;SDS011;18778;47.610;9.776;2023-08-24T02:48:36;15.30;;;12.30;;
7919;SDS011;18778;47.610;9.776;2023-08-24T02:51:03;18.60;;;13.07;;
7919;SDS011;18778;47.610;9.776;2023-08-24T02:53:29;13.17;;;11.97;;
7919;SDS011;18778;47.610;9.776;2023-08-24T02:55:55;13.77;;;12.37;;
7919;SDS011;18778;47.610;9.776;2023-08-24T02:58:22;16.27;;;13.30;;
7919;SDS011;18778;47.610;9.776;2023-08-24T03:00:48;14.17;;;12.73;;
7919;SDS011;18778;47.610;9.776;2023-08-24T03:03:14;14.93;;;12.63;;
7919;SDS011;18778;47.610;9.776;2023-08-24T03:05:40;14.07;;;12.60;;
7919;SDS011;18778;47.610;9.776;2023-08-24T03:08:16;14.83;;;13.20;;
7919;SDS011;18778;47.610;9.776;2023-08-24T03:10:42;15.57;;;13.27;;
7919;SDS011;18778;47.610;9.776;2023-08-24T03:13:08;16.27;;;12.53;;
7919;SDS011;18778;47.610;9.776;2023-08-24T03:15:34;13.23;;;11.83;;
7919;SDS011;18778;47.610;9.776;2023-08-24T03:18:00;13.87;;;12.53;;
7919;SDS011;18778;47.610;9.776;2023-08-24T03:20:26;13.43;;;11.90;;
7919;SDS011;18778;47.610;9.776;2023-08-24T03:22:52;14.00;;;12.10;;
7919;SDS011;18778;47.610;9.776;2023-08-24T03:25:18;16.63;;;12.57;;
7919;SDS011;18778;47.610;9.776;2023-08-24T03:27:44;16.73;;;12.40;;
7919;SDS011;18778;47.610;9.776;2023-08-24T03:30:10;17.33;;;13.07;;
7919;SDS011;18778;47.610;9.776;2023-08-24T03:32:36;15.27;;;12.30;;
7919;SDS011;18778;47.610;9.776;2023-08-24T03:35:02;14.63;;;12.90;;
7919;SDS011;18778;47.610;9.776;2023-08-24T03:37:28;13.43;;;12.03;;
7919;SDS011;18778;47.610;9.776;2023-08-24T03:39:54;13.50;;;12.20;;
7919;SDS011;18778;47.610;9.776;2023-08-24T03:42:20;15.80;;;11.70;;
7919;SDS011;18778;47.610;9.776;2023-08-24T03:44:46;13.57;;;12.27;;
7919;SDS011;18778;47.610;9.776;2023-08-24T03:47:11;17.07;;;12.83;;
7919;SDS011;18778;47.610;9.776;2023-08-24T03:49:37;13.57;;;11.90;;
7919;SDS011;18778;47.610;9.776;2023-08-24T03:52:03;16.43;;;13.13;;
7919;SDS011;18778;47.610;9.776;2023-08-24T03:54:29;18.73;;;11.80;;
7919;SDS011;18778;47.610;9.776;2023-08-24T03:56:55;15.43;;;12.07;;
7919;SDS011;18778;47.610;9.776;2023-08-24T03:59:21;14.00;;;12.60;;
7919;SDS011;18778;47.610;9.776;2023-08-24T04:01:47;14.70;;;12.57;;
7919;SDS011;18778;47.610;9.776;2023-08-24T04:04:13;14.07;;;12.57;;
7919;SDS011;18778;47.610;9.776;2023-08-24T04:06:39;14.07;;;11.73;;
7919;SDS011;18778;47.610;9.776;2023-08-24T04:09:05;13.20;;;11.97;;
7919;SDS011;18778;47.610;9.776;2023-08-24T04:11:31;15.13;;;11.63;;
7919;SDS011;18778;47.610;9.776;2023-08-24T04:13:57;13.60;;;12.20;;
7919;SDS011;18778;47.610;9.776;2023-08-24T04:16:23;15.83;;;11.97;;
7919;SDS011;18778;47.610;9.776;2023-08-24T04:18:49;13.40;;;11.93;;
7919;SDS011;18778;47.610;9.776;2023-08-24T04:21:15;13.93;;;12.50;;
7919;SDS011;18778;47.610;9.776;2023-08-24T04:23:41;13.87;;;11.73;;
7919;SDS011;18778;47.610;9.776;2023-08-24T04:26:10;13.73;;;11.60;;
7919;SDS011;18778;47.610;9.776;2023-08-24T04:28:36;14.63;;;12.00;;
7919;SDS011;18778;47.610;9.776;2023-08-24T04:31:02;18.27;;;12.57;;
7919;SDS011;18778;47.610;9.776;2023-08-24T04:33:29;15.63;;;12.37;;
7919;SDS011;18778;47.610;9.776;2023-08-24T04:35:55;13.33;;;12.03;;
7919;SDS011;18778;47.610;9.776;2023-08-24T04:38:21;16.97;;;11.97;;
7919;SDS011;18778;47.610;9.776;2023-08-24T04:40:48;14.43;;;12.97;;
7919;SDS011;18778;47.610;9.776;2023-08-24T04:43:16;14.60;;;11.60;;
7919;SDS011;18778;47.610;9.776;2023-08-24T04:45:42;13.93;;;12.10;;
7919;SDS011;18778;47.610;9.776;2023-08-24T04:48:07;15.03;;;11.60;;
7919;SDS011;18778;47.610;9.776;2023-08-24T04:50:33;14.07;;;11.60;;
7919;SDS011;18778;47.610;9.776;2023-08-24T04:52:59;16.43;;;11.40;;
7919;SDS011;18778;47.610;9.776;2023-08-24T04:55:25;14.13;;;12.63;;
7919;SDS011;18778;47.610;9.776;2023-08-24T04:57:51;13.37;;;12.03;;
7919;SDS011;18778;47.610;9.776;2023-08-24T05:00:17;18.80;;;12.27;;
7919;SDS011;18778;47.610;9.776;2023-08-24T05:02:43;13.80;;;12.03;;
7919;SDS011;18778;47.610;9.776;2023-08-24T05:05:09;15.70;;;11.90;;
7919;SDS011;18778;47.610;9.776;2023-08-24T05:07:35;17.03;;;12.20;;
7919;SDS011;18778;47.610;9.776;2023-08-24T05:10:01;13.80;;;12.40;;
7919;SDS011;18778;47.610;9.776;2023-08-24T05:12:28;15.30;;;11.07;;
7919;SDS011;18778;47.610;9.776;2023-08-24T05:14:54;13.43;;;11.93;;
7919;SDS011;18778;47.610;9.776;2023-08-24T05:17:20;14.93;;;11.53;;
7919;SDS011;18778;47.610;9.776;2023-08-24T05:19:55;13.73;;;11.63;;
7919;SDS011;18778;47.610;9.776;2023-08-24T05:22:21;13.03;;;11.73;;
7919;SDS011;18778;47.610;9.776;2023-08-24T05:24:47;14.77;;;11.87;;
7919;SDS011;18778;47.610;9.776;2023-08-24T05:27:13;13.70;;;11.03;;
7919;SDS011;18778;47.610;9.776;2023-08-24T05:29:39;14.40;;;12.23;;
7919;SDS011;18778;47.610;9.776;2023-08-24T05:32:05;15.47;;;11.43;;
7919;SDS011;18778;47.610;9.776;2023-08-24T05:34:31;12.77;;;11.07;;
7919;SDS011;18778;47.610;9.776;2023-08-24T05:36:57;17.40;;;11.77;;
7919;SDS011;18778;47.610;9.776;2023-08-24T05:39:23;16.57;;;11.87;;
7919;SDS011;18778;47.610;9.776;2023-08-24T05:41:52;12.30;;;10.67;;
7919;SDS011;18778;47.610;9.776;2023-08-24T05:44:18;12.53;;;11.20;;
7919;SDS011;18778;47.610;9.776;2023-08-24T05:46:45;11.57;;;10.47;;
7919;SDS011;18778;47.610;9.776;2023-08-24T05:49:11;13.97;;;10.17;;
7919;SDS011;18778;47.610;9.776;2023-08-24T05:51:37;13.70;;;10.33;;
7919;SDS011;18778;47.610;9.776;2023-08-24T05:54:06;11.90;;;10.13;;
7919;SDS011;18778;47.610;9.776;2023-08-24T05:56:32;11.07;;;9.97;;
7919;SDS011;18778;47.610;9.776;2023-08-24T05:58:58;12.77;;;9.70;;
7919;SDS011;18778;47.610;9.776;2023-08-24T06:01:25;14.57;;;9.93;;
7919;SDS011;18778;47.610;9.776;2023-08-24T06:03:51;11.50;;;10.13;;
7919;SDS011;18778;47.610;9.776;2023-08-24T06:06:20;19.17;;;10.20;;
7919;SDS011;18778;47.610;9.776;2023-08-24T06:08:49;11.13;;;9.43;;
7919;SDS011;18778;47.610;9.776;2023-08-24T06:11:15;14.07;;;9.80;;
7919;SDS011;18778;47.610;9.776;2023-08-24T06:13:41;13.80;;;9.57;;
7919;SDS011;18778;47.610;9.776;2023-08-24T06:16:06;14.37;;;9.60;;
7919;SDS011;18778;47.610;9.776;2023-08-24T06:18:32;11.80;;;9.87;;
7919;SDS011;18778;47.610;9.776;2023-08-24T06:20:58;12.47;;;9.43;;
7919;SDS011;18778;47.610;9.776;2023-08-24T06:23:24;13.40;;;9.20;;
7919;SDS011;18778;47.610;9.776;2023-08-24T06:25:50;10.27;;;8.47;;
7919;SDS011;18778;47.610;9.776;2023-08-24T06:28:16;12.63;;;9.20;;
7919;SDS011;18778;47.610;9.776;2023-08-24T06:30:42;13.83;;;9.50;;
7919;SDS011;18778;47.610;9.776;2023-08-24T06:33:09;12.00;;;9.20;;
7919;SDS011;18778;47.610;9.776;2023-08-24T06:35:36;10.27;;;9.27;;
7919;SDS011;18778;47.610;9.776;2023-08-24T06:38:02;12.83;;;8.80;;
7919;SDS011;18778;47.610;9.776;2023-08-24T06:40:28;11.20;;;9.13;;
7919;SDS011;18778;47.610;9.776;2023-08-24T06:42:54;9.57;;;8.57;;
7919;SDS011;18778;47.610;9.776;2023-08-24T06:45:20;11.47;;;8.87;;
7919;SDS011;18778;47.610;9.776;2023-08-24T06:50:48;15.60;;;9.63;;
7919;SDS011;18778;47.610;9.776;2023-08-24T06:53:14;9.93;;;8.47;;
7919;SDS011;18778;47.610;9.776;2023-08-24T06:55:40;10.97;;;8.10;;
7919;SDS011;18778;47.610;9.776;2023-08-24T06:58:06;8.90;;;7.87;;
7919;SDS011;18778;47.610;9.776;2023-08-24T07:00:32;12.03;;;8.40;;
7919;SDS011;18778;47.610;9.776;2023-08-24T07:03:01;12.87;;;8.10;;
7919;SDS011;18778;47.610;9.776;2023-08-24T07:05:27;10.00;;;8.13;;
7919;SDS011;18778;47.610;9.776;2023-08-24T07:07:54;10.77;;;8.53;;
7919;SDS011;18778;47.610;9.776;2023-08-24T07:10:20;11.30;;;7.97;;
7919;SDS011;18778;47.610;9.776;2023-08-24T07:12:46;14.73;;;8.43;;
7919;SDS011;18778;47.610;9.776;2023-08-24T07:15:12;14.57;;;7.70;;
7919;SDS011;18778;47.610;9.776;2023-08-24T07:17:38;11.03;;;8.30;;
7919;SDS011;18778;47.610;9.776;2023-08-24T07:20:20;13.03;;;8.40;;
7919;SDS011;18778;47.610;9.776;2023-08-24T07:22:46;12.93;;;8.43;;
7919;SDS011;18778;47.610;9.776;2023-08-24T07:25:12;9.33;;;7.63;;
7919;SDS011;18778;47.610;9.776;2023-08-24T07:27:39;14.43;;;7.93;;
7919;SDS011;18778;47.610;9.776;2023-08-24T07:30:06;11.50;;;7.97;;
7919;SDS011;18778;47.610;9.776;2023-08-24T07:32:32;11.93;;;8.33;;
7919;SDS011;18778;47.610;9.776;2023-08-24T07:34:58;11.30;;;8.03;;
7919;SDS011;18778;47.610;9.776;2023-08-24T07:37:25;12.07;;;8.37;;
7919;SDS011;18778;47.610;9.776;2023-08-24T07:39:51;12.73;;;8.90;;
7919;SDS011;18778;47.610;9.776;2023-08-24T07:42:19;10.53;;;7.97;;
7919;SDS011;18778;47.610;9.776;2023-08-24T07:44:45;9.00;;;7.67;;
7919;SDS011;18778;47.610;9.776;2023-08-24T07:47:11;10.13;;;7.40;;
7919;SDS011;18778;47.610;9.776;2023-08-24T07:49:36;8.10;;;7.30;;
7919;SDS011;18778;47.610;9.776;2023-08-24T07:52:04;12.33;;;6.93;;
7919;SDS011;18778;47.610;9.776;2023-08-24T07:54:30;11.03;;;7.33;;
7919;SDS011;18778;47.610;9.776;2023-08-24T07:56:55;10.47;;;6.60;;
7919;SDS011;18778;47.610;9.776;2023-08-24T07:59:21;13.23;;;7.87;;
7919;SDS011;18778;47.610;9.776;2023-08-24T08:01:47;8.80;;;7.53;;
7919;SDS011;18778;47.610;9.776;2023-08-24T08:04:12;10.67;;;7.40;;
7919;SDS011;18778;47.610;9.776;2023-08-24T08:06:38;12.67;;;7.40;;
7919;SDS011;18778;47.610;9.776;2023-08-24T08:09:04;8.57;;;6.97;;
7919;SDS011;18778;47.610;9.776;2023-08-24T08:11:34;12.57;;;7.07;;
7919;SDS011;18778;47.610;9.776;2023-08-24T08:14:00;11.23;;;6.80;;
7919;SDS011;18778;47.610;9.776;2023-08-24T08:16:26;9.00;;;6.90;;
7919;SDS011;18778;47.610;9.776;2023-08-24T08:18:52;13.27;;;7.00;;
7919;SDS011;18778;47.610;9.776;2023-08-24T08:21:17;11.97;;;6.50;;
7919;SDS011;18778;47.610;9.776;2023-08-24T08:23:44;12.73;;;6.93;;
7919;SDS011;18778;47.610;9.776;2023-08-24T08:26:10;12.50;;;6.90;;
7919;SDS011;18778;47.610;9.776;2023-08-24T08:28:36;10.27;;;6.70;;
7919;SDS011;18778;47.610;9.776;2023-08-24T08:31:02;10.40;;;5.07;;
7919;SDS011;18778;47.610;9.776;2023-08-24T08:33:28;14.97;;;5.27;;
7919;SDS011;18778;47.610;9.776;2023-08-24T08:35:54;9.80;;;5.57;;
7919;SDS011;18778;47.610;9.776;2023-08-24T08:38:21;14.05;;;5.80;;
7919;SDS011;18778;47.610;9.776;2023-08-24T08:40:56;12.43;;;6.20;;
7919;SDS011;18778;47.610;9.776;2023-08-24T08:43:28;8.10;;;5.82;;
7919;SDS011;18778;47.610;9.776;2023-08-24T08:45:55;8.68;;;6.15;;
7919;SDS011;18778;47.610;9.776;2023-08-24T08:48:21;11.38;;;5.70;;
7919;SDS011;18778;47.610;9.776;2023-08-24T08:50:51;14.43;;;5.65;;
7919;SDS011;18778;47.610;9.776;2023-08-24T08:53:21;11.45;;;5.57;;
7919;SDS011;18778;47.610;9.776;2023-08-24T08:55:48;11.98;;;6.10;;
7919;SDS011;18778;47.610;9.776;2023-08-24T08:58:20;13.38;;;5.72;;
7919;SDS011;18778;47.610;9.776;2023-08-24T09:00:46;10.20;;;4.82;;
7919;SDS011;18778;47.610;9.776;2023-08-24T09:03:13;8.40;;;5.03;;
7919;SDS011;18778;47.610;9.776;2023-08-24T09:05:42;10.15;;;5.43;;
7919;SDS011;18778;47.610;9.776;2023-08-24T09:08:08;14.23;;;6.25;;
7919;SDS011;18778;47.610;9.776;2023-08-24T09:10:35;11.77;;;5.93;;
7919;SDS011;18778;47.610;9.776;2023-08-24T09:13:01;15.50;;;6.20;;
7919;SDS011;18778;47.610;9.776;2023-08-24T09:15:27;12.93;;;6.97;;
7919;SDS011;18778;47.610;9.776;2023-08-24T09:17:59;10.35;;;6.93;;
7919;SDS011;18778;47.610;9.776;2023-08-24T09:20:28;10.68;;;6.65;;
7919;SDS011;18778;47.610;9.776;2023-08-24T09:22:57;9.20;;;6.53;;
7919;SDS011;18778;47.610;9.776;2023-08-24T09:25:27;9.35;;;7.20;;
7919;SDS011;18778;47.610;9.776;2023-08-24T09:27:59;11.47;;;6.67;;
7919;SDS011;18778;47.610;9.776;2023-08-24T09:30:36;13.25;;;7.25;;
7919;SDS011;18778;47.610;9.776;2023-08-24T09:33:03;14.45;;;7.10;;
7919;SDS011;18778;47.610;9.776;2023-08-24T09:35:35;15.52;;;7.75;;
7919;SDS011;18778;47.610;9.776;2023-08-24T09:38:35;15.80;;;6.97;;
7919;SDS011;18778;47.610;9.776;2023-08-24T09:40:54;11.40;;;6.97;;
7919;SDS011;18778;47.610;9.776;2023-08-24T09:43:21;12.30;;;7.82;;
7919;SDS011;18778;47.610;9.776;2023-08-24T09:45:48;14.85;;;6.78;;
7919;SDS011;18778;47.610;9.776;2023-08-24T09:48:15;14.65;;;7.43;;
7919;SDS011;18778;47.610;9.776;2023-08-24T09:50:47;16.35;;;7.25;;
7919;SDS011;18778;47.610;9.776;2023-08-24T09:53:17;12.70;;;7.30;;
7919;SDS011;18778;47.610;9.776;2023-08-24T09:55:54;13.90;;;6.90;;
7919;SDS011;18778;47.610;9.776;2023-08-24T10:01:15;20.17;;;8.02;;
7919;SDS011;18778;47.610;9.776;2023-08-24T10:03:50;9.65;;;6.95;;
7919;SDS011;18778;47.610;9.776;2023-08-24T10:06:28;15.20;;;7.68;;
7919;SDS011;18778;47.610;9.776;2023-08-24T10:09:01;15.77;;;7.47;;
7919;SDS011;18778;47.610;9.776;2023-08-24T10:11:32;11.13;;;7.10;;
7919;SDS011;18778;47.610;9.776;2023-08-24T10:14:10;11.23;;;7.80;;
7919;SDS011;18778;47.610;9.776;2023-08-24T10:16:38;12.05;;;7.22;;
7919;SDS011;18778;47.610;9.776;2023-08-24T10:19:04;13.48;;;7.50;;
7919;SDS011;18778;47.610;9.776;2023-08-24T10:21:30;12.77;;;7.40;;
7919;SDS011;18778;47.610;9.776;2023-08-24T10:23:57;13.82;;;6.93;;
7919;SDS011;18778;47.610;9.776;2023-08-24T10:26:23;13.18;;;7.07;;
7919;SDS011;18778;47.610;9.776;2023-08-24T10:28:49;14.95;;;7.20;;
7919;SDS011;18778;47.610;9.776;2023-08-24T10:31:16;16.88;;;6.85;;
7919;SDS011;18778;47.610;9.776;2023-08-24T10:33:42;8.05;;;6.45;;
7919;SDS011;18778;47.610;9.776;2023-08-24T10:36:09;13.32;;;6.90;;
7919;SDS011;18778;47.610;9.776;2023-08-24T10:38:39;11.48;;;6.45;;
7919;SDS011;18778;47.610;9.776;2023-08-24T10:41:07;9.23;;;6.40;;
7919;SDS011;18778;47.610;9.776;2023-08-24T10:43:39;11.25;;;6.32;;
7919;SDS011;18778;47.610;9.776;2023-08-24T10:46:13;10.77;;;6.68;;
7919;SDS011;18778;47.610;9.776;2023-08-24T10:53:42;12.23;;;6.28;;
7919;SDS011;18778;47.610;9.776;2023-08-24T10:56:10;12.90;;;5.80;;
7919;SDS011;18778;47.610;9.776;2023-08-24T10:58:36;8.80;;;6.15;;
7919;SDS011;18778;47.610;9.776;2023-08-24T11:01:02;11.60;;;6.30;;
7919;SDS011;18778;47.610;9.776;2023-08-24T11:03:31;15.10;;;6.55;;
7919;SDS011;18778;47.610;9.776;2023-08-24T11:05:58;16.30;;;7.05;;
7919;SDS011;18778;47.610;9.776;2023-08-24T11:11:19;13.90;;;5.50;;
7919;SDS011;18778;47.610;9.776;2023-08-24T11:19:07;11.15;;;6.00;;
7919;SDS011;18778;47.610;9.776;2023-08-24T11:21:35;10.90;;;5.07;;
7919;SDS011;18778;47.610;9.776;2023-08-24T11:24:01;12.25;;;5.88;;
7919;SDS011;18778;47.610;9.776;2023-08-24T11:26:29;18.30;;;6.78;;
7919;SDS011;18778;47.610;9.776;2023-08-24T11:28:55;12.95;;;5.28;;
7919;SDS011;18778;47.610;9.776;2023-08-24T11:31:22;10.85;;;5.45;;
7919;SDS011;18778;47.610;9.776;2023-08-24T11:33:55;11.35;;;5.53;;
7919;SDS011;18778;47.610;9.776;2023-08-24T11:36:21;11.77;;;5.10;;
7919;SDS011;18778;47.610;9.776;2023-08-24T11:38:48;9.95;;;5.65;;
7919;SDS011;18778;47.610;9.776;2023-08-24T11:41:14;10.60;;;4.95;;
7919;SDS011;18778;47.610;9.776;2023-08-24T11:43:45;13.43;;;4.85;;
7919;SDS011;18778;47.610;9.776;2023-08-24T11:46:12;10.68;;;4.65;;
7919;SDS011;18778;47.610;9.776;2023-08-24T11:48:40;12.35;;;5.03;;
7919;SDS011;18778;47.610;9.776;2023-08-24T11:51:12;13.68;;;5.00;;
7919;SDS011;18778;47.610;9.776;2023-08-24T11:53:42;12.35;;;5.35;;
7919;SDS011;18778;47.610;9.776;2023-08-24T11:56:09;14.60;;;5.82;;
7919;SDS011;18778;47.610;9.776;2023-08-24T11:58:41;11.52;;;4.93;;
7919;SDS011;18778;47.610;9.776;2023-08-24T12:01:11;16.65;;;5.82;;
7919;SDS011;18778;47.610;9.776;2023-08-24T12:03:37;16.58;;;5.30;;
7919;SDS011;18778;47.610;9.776;2023-08-24T12:06:10;12.15;;;4.97;;
7919;SDS011;18778;47.610;9.776;2023-08-24T12:08:43;10.85;;;4.68;;
7919;SDS011;18778;47.610;9.776;2023-08-24T12:11:19;17.83;;;5.15;;
7919;SDS011;18778;47.610;9.776;2023-08-24T12:16:15;15.68;;;4.70;;
7919;SDS011;18778;47.610;9.776;2023-08-24T12:21:21;15.70;;;5.05;;
7919;SDS011;18778;47.610;9.776;2023-08-24T12:23:57;17.63;;;6.20;;
7919;SDS011;18778;47.610;9.776;2023-08-24T12:26:28;14.00;;;4.75;;
7919;SDS011;18778;47.610;9.776;2023-08-24T12:29:07;18.27;;;5.25;;
7919;SDS011;18778;47.610;9.776;2023-08-24T12:31:34;12.40;;;5.70;;
7919;SDS011;18778;47.610;9.776;2023-08-24T12:34:04;12.32;;;4.68;;
7919;SDS011;18778;47.610;9.776;2023-08-24T12:36:35;15.32;;;5.32;;
7919;SDS011;18778;47.610;9.776;2023-08-24T12:39:06;21.20;;;5.47;;
7919;SDS011;18778;47.610;9.776;2023-08-24T12:41:35;11.13;;;4.85;;
7919;SDS011;18778;47.610;9.776;2023-08-24T12:44:01;13.20;;;5.38;;
7919;SDS011;18778;47.610;9.776;2023-08-24T12:46:30;15.23;;;5.70;;
7919;SDS011;18778;47.610;9.776;2023-08-24T12:48:57;15.68;;;5.32;;
7919;SDS011;18778;47.610;9.776;2023-08-24T12:51:23;17.00;;;5.35;;
7919;SDS011;18778;47.610;9.776;2023-08-24T12:53:49;14.77;;;4.85;;
7919;SDS011;18778;47.610;9.776;2023-08-24T12:56:15;15.55;;;4.82;;
7919;SDS011;18778;47.610;9.776;2023-08-24T12:58:41;14.30;;;5.30;;
7919;SDS011;18778;47.610;9.776;2023-08-24T13:01:07;14.98;;;5.13;;
7919;SDS011;18778;47.610;9.776;2023-08-24T13:03:33;14.30;;;5.22;;
7919;SDS011;18778;47.610;9.776;2023-08-24T13:06:00;11.13;;;5.00;;
7919;SDS011;18778;47.610;9.776;2023-08-24T13:08:26;12.45;;;5.00;;
7919;SDS011;18778;47.610;9.776;2023-08-24T13:10:52;16.17;;;5.15;;
7919;SDS011;18778;47.610;9.776;2023-08-24T13:13:18;12.52;;;4.53;;
7919;SDS011;18778;47.610;9.776;2023-08-24T13:15:45;15.32;;;5.20;;
7919;SDS011;18778;47.610;9.776;2023-08-24T13:18:11;17.02;;;5.55;;
7919;SDS011;18778;47.610;9.776;2023-08-24T13:20:37;17.02;;;5.32;;
7919;SDS011;18778;47.610;9.776;2023-08-24T13:23:02;15.77;;;5.13;;
7919;SDS011;18778;47.610;9.776;2023-08-24T13:25:28;16.48;;;5.03;;
7919;SDS011;18778;47.610;9.776;2023-08-24T13:27:54;10.98;;;5.10;;
7919;SDS011;18778;47.610;9.776;2023-08-24T13:30:21;14.05;;;4.65;;
7919;SDS011;18778;47.610;9.776;2023-08-24T13:32:47;15.13;;;5.68;;
7919;SDS011;18778;47.610;9.776;2023-08-24T13:35:12;10.38;;;5.22;;
7919;SDS011;18778;47.610;9.776;2023-08-24T13:37:38;10.45;;;4.57;;
7919;SDS011;18778;47.610;9.776;2023-08-24T13:40:04;12.25;;;5.45;;
7919;SDS011;18778;47.610;9.776;2023-08-24T13:42:44;7.85;;;4.85;;
7919;SDS011;18778;47.610;9.776;2023-08-24T13:45:10;13.90;;;5.40;;
7919;SDS011;18778;47.610;9.776;2023-08-24T13:47:36;17.27;;;4.60;;
7919;SDS011;18778;47.610;9.776;2023-08-24T13:50:02;18.15;;;6.05;;
7919;SDS011;18778;47.610;9.776;2023-08-24T13:52:28;12.85;;;5.43;;
7919;SDS011;18778;47.610;9.776;2023-08-24T13:54:54;11.60;;;4.78;;
7919;SDS011;18778;47.610;9.776;2023-08-24T13:57:20;13.43;;;4.53;;
7919;SDS011;18778;47.610;9.776;2023-08-24T13:59:46;11.70;;;4.60;;
7919;SDS011;18778;47.610;9.776;2023-08-24T14:02:12;10.70;;;4.32;;
7919;SDS011;18778;47.610;9.776;2023-08-24T14:04:38;15.55;;;4.90;;
7919;SDS011;18778;47.610;9.776;2023-08-24T14:07:04;11.98;;;4.57;;
7919;SDS011;18778;47.610;9.776;2023-08-24T14:09:30;13.00;;;5.10;;
7919;SDS011;18778;47.610;9.776;2023-08-24T14:11:56;12.60;;;4.47;;
7919;SDS011;18778;47.610;9.776;2023-08-24T14:14:22;11.27;;;5.05;;
7919;SDS011;18778;47.610;9.776;2023-08-24T14:16:53;15.85;;;6.00;;
7919;SDS011;18778;47.610;9.776;2023-08-24T14:19:19;12.05;;;5.25;;
7919;SDS011;18778;47.610;9.776;2023-08-24T14:21:45;15.55;;;4.80;;
7919;SDS011;18778;47.610;9.776;2023-08-24T14:24:11;10.40;;;4.35;;
7919;SDS011;18778;47.610;9.776;2023-08-24T14:26:37;15.10;;;5.10;;
7919;SDS011;18778;47.610;9.776;2023-08-24T14:29:04;18.30;;;5.70;;
7919;SDS011;18778;47.610;9.776;2023-08-24T14:31:30;12.35;;;4.55;;
7919;SDS011;18778;47.610;9.776;2023-08-24T14:33:56;11.43;;;4.78;;
7919;SDS011;18778;47.610;9.776;2023-08-24T14:36:22;13.07;;;4.85;;
7919;SDS011;18778;47.610;9.776;2023-08-24T14:38:49;16.35;;;4.75;;
7919;SDS011;18778;47.610;9.776;2023-08-24T14:41:15;8.18;;;4.25;;
7919;SDS011;18778;47.610;9.776;2023-08-24T14:43:41;16.02;;;4.88;;
7919;SDS011;18778;47.610;9.776;2023-08-24T14:46:07;10.82;;;4.75;;
7919;SDS011;18778;47.610;9.776;2023-08-24T14:48:33;18.83;;;4.65;;
7919;SDS011;18778;47.610;9.776;2023-08-24T14:51:00;18.83;;;5.45;;
7919;SDS011;18778;47.610;9.776;2023-08-24T14:53:26;8.65;;;3.47;;
7919;SDS011;18778;47.610;9.776;2023-08-24T14:55:55;16.10;;;4.60;;
7919;SDS011;18778;47.610;9.776;2023-08-24T14:58:22;13.95;;;5.30;;
7919;SDS011;18778;47.610;9.776;2023-08-24T15:00:49;18.90;;;5.28;;
7919;SDS011;18778;47.610;9.776;2023-08-24T15:03:15;20.65;;;4.97;;
7919;SDS011;18778;47.610;9.776;2023-08-24T15:05:42;15.30;;;4.88;;
7919;SDS011;18778;47.610;9.776;2023-08-24T15:08:09;18.13;;;5.00;;
7919;SDS011;18778;47.610;9.776;2023-08-24T15:10:36;12.75;;;4.97;;
7919;SDS011;18778;47.610;9.776;2023-08-24T15:13:02;12.70;;;5.05;;